Time;durP1;ratioP1;P1;durP2;ratioP2;P2;SDS_P1;SDS_P2;PMS_P1;PMS_P2;Temp;Humidity;BMP_temperature;BMP_pressure;BME280_temperature;BME280_humidity;BME280_pressure;Samples;Min_cycle;Max_cycle;Signal;HPM_P1;HPM_P2
2022/07/15 00:01:44;;;;;;;1.02;1.00;;;;;;;18.08;66.88;100733.33;1857590;77;20913;-89
2022/07/15 00:04:12;;;;;;;1.90;1.17;;;;;;;18.09;66.68;100734.98;1857637;77;20952;-89
2022/07/15 00:06:40;;;;;;;1.75;1.17;;;;;;;18.08;66.60;100731.51;1859580;77;21425;-89
2022/07/15 00:09:07;;;;;;;1.25;0.78;;;;;;;18.08;66.53;100731.51;1858134;77;21809;-89
2022/07/15 00:11:36;;;;;;;2.12;1.47;;;;;;;18.08;66.51;100724.04;1857354;77;20956;-89
2022/07/15 00:14:03;;;;;;;3.25;0.98;;;;;;;18.09;66.42;100730.52;1857273;77;20913;-90
2022/07/15 00:16:32;;;;;;;2.05;1.20;;;;;;;18.10;66.32;100735.36;1857505;77;20973;-89
2022/07/15 00:18:59;;;;;;;1.85;1.40;;;;;;;18.10;66.29;100732.70;1857529;77;21031;-90
2022/07/15 00:21:26;;;;;;;2.05;1.85;;;;;;;18.12;66.17;100725.41;1857499;77;21203;-89
2022/07/15 00:23:53;;;;;;;1.12;0.85;;;;;;;18.12;66.14;100724.09;1857497;77;20956;-89
2022/07/15 00:26:20;;;;;;;1.60;1.10;;;;;;;18.13;66.08;100733.74;1857394;77;20948;-89
2022/07/15 00:28:47;;;;;;;3.12;0.93;;;;;;;18.12;66.01;100724.95;1857780;77;20920;-89
2022/07/15 00:31:14;;;;;;;0.70;0.70;;;;;;;18.12;65.93;100726.28;1858116;77;21386;-90
2022/07/15 00:33:41;;;;;;;3.45;1.05;;;;;;;18.13;65.90;100725.28;1858801;77;21965;-86
2022/07/15 00:36:07;;;;;;;1.52;0.98;;;;;;;18.14;65.83;100722.13;1860255;77;20830;-88
2022/07/15 00:38:35;;;;;;;5.87;1.20;;;;;;;18.14;65.80;100728.30;1859267;77;20866;-88
2022/07/15 00:41:02;;;;;;;2.42;0.90;;;;;;;18.14;65.76;100728.30;1857802;77;20992;-89
2022/07/15 00:43:29;;;;;;;2.10;1.10;;;;;;;18.14;65.81;100720.34;1857613;77;20991;-88
2022/07/15 00:45:57;;;;;;;1.10;1.00;;;;;;;18.13;65.76;100715.99;1857316;77;21217;-89
2022/07/15 00:48:24;;;;;;;3.67;1.15;;;;;;;18.13;65.72;100711.18;1857355;77;20976;-90
2022/07/15 00:50:51;;;;;;;1.00;0.82;;;;;;;18.12;65.65;100716.98;1857494;77;20952;-89
2022/07/15 00:53:19;;;;;;;2.87;1.52;;;;;;;18.13;65.58;100720.47;1836475;77;20875;-90
2022/07/15 00:55:47;;;;;;;0.80;0.80;;;;;;;18.12;65.54;100722.76;1826062;77;20906;-88
2022/07/15 00:58:19;;;;;;;3.33;0.80;;;;;;;18.12;65.49;100726.73;1826104;77;21190;-88
2022/07/15 01:00:47;;;;;;;1.55;0.93;;;;;;;18.11;65.47;100726.41;1826022;78;20894;-89
2022/07/15 01:03:16;;;;;;;0.95;0.75;;;;;;;18.11;65.38;100718.44;1799223;78;20926;-90
2022/07/15 01:05:43;;;;;;;1.55;1.00;;;;;;;18.10;65.34;100718.94;1826084;77;20894;-89
2022/07/15 01:08:10;;;;;;;3.58;1.10;;;;;;;18.11;65.18;100719.77;1826086;77;20937;-89
2022/07/15 01:10:37;;;;;;;2.55;1.05;;;;;;;18.11;65.27;100718.44;1826061;78;21777;-89
2022/07/15 01:13:04;;;;;;;1.60;1.00;;;;;;;18.09;65.21;100713.27;1798851;78;21391;-89
2022/07/15 01:15:32;;;;;;;4.03;1.00;;;;;;;18.11;65.21;100716.62;1826182;77;20879;-89
2022/07/15 01:18:02;;;;;;;1.07;0.98;;;;;;;18.10;65.32;100715.45;1826328;78;20945;-89
2022/07/15 01:20:30;;;;;;;0.72;0.70;;;;;;;18.08;65.33;100711.59;1826371;77;20962;-88
2022/07/15 01:22:59;;;;;;;1.35;0.93;;;;;;;18.05;65.36;100711.86;1826367;77;21905;-89
2022/07/15 01:25:28;;;;;;;1.52;1.10;;;;;;;18.04;65.44;100704.89;1825382;77;20867;-89
2022/07/15 01:27:56;;;;;;;1.90;1.10;;;;;;;18.00;65.45;100708.79;1826243;77;20910;-88
2022/07/15 01:30:25;;;;;;;3.52;1.27;;;;;;;17.98;65.62;100710.24;1826262;78;20879;-90
2022/07/15 01:32:52;;;;;;;1.62;0.98;;;;;;;17.95;65.68;100715.84;1826480;77;20871;-89
2022/07/15 01:35:21;;;;;;;1.70;1.17;;;;;;;17.92;65.73;100708.16;1826711;77;21820;-87
2022/07/15 01:37:50;;;;;;;1.20;1.10;;;;;;;17.89;65.85;100712.41;1826520;78;20945;-87
2022/07/15 01:40:18;;;;;;;1.40;1.20;;;;;;;17.85;65.98;100710.16;1826517;77;20879;-89
2022/07/15 01:42:46;;;;;;;1.55;1.25;;;;;;;17.82;66.09;100716.58;1826303;77;20859;-89
2022/07/15 01:45:14;;;;;;;3.15;1.65;;;;;;;17.79;66.11;100712.86;1826415;77;20895;-89
2022/07/15 01:47:47;;;;;;;2.60;1.00;;;;;;;17.75;66.24;100708.30;1826488;77;21817;-89
2022/07/15 01:50:16;;;;;;;2.90;1.47;;;;;;;17.71;66.36;100706.06;1826921;78;20942;-88
2022/07/15 01:52:56;;;;;;;2.50;1.72;;;;;;;17.68;66.55;100708.99;1828046;77;20862;-89
2022/07/15 01:55:24;;;;;;;6.53;1.60;;;;;;;17.64;66.65;100714.22;1827036;77;20874;-88
2022/07/15 01:57:54;;;;;;;4.25;1.52;;;;;;;17.61;66.77;100712.67;1826473;77;20836;-88
2022/07/15 02:00:22;;;;;;;1.50;1.20;;;;;;;17.58;66.87;100708.95;1826349;77;21059;-88
2022/07/15 02:02:49;;;;;;;3.00;1.32;;;;;;;17.54;67.05;100711.52;1826212;77;21007;-89
2022/07/15 02:05:18;;;;;;;2.87;1.40;;;;;;;17.53;67.18;100709.85;1826126;77;20902;-89
2022/07/15 02:07:47;;;;;;;1.77;1.50;;;;;;;17.49;67.38;100710.59;1826160;77;20879;-90
2022/07/15 02:10:15;;;;;;;1.75;1.50;;;;;;;17.46;67.48;100714.02;1826137;77;21325;-88
2022/07/15 02:12:45;;;;;;;2.50;1.52;;;;;;;17.43;67.54;100711.16;1826136;77;21131;-89
2022/07/15 02:15:13;;;;;;;3.15;2.27;;;;;;;17.41;67.57;100705.15;1826177;77;20986;-89
2022/07/15 02:17:43;;;;;;;1.77;1.10;;;;;;;17.37;67.61;100707.22;1825541;78;20866;-89
2022/07/15 02:20:11;;;;;;;2.35;1.57;;;;;;;17.35;67.69;100710.48;1826115;77;20989;-90
2022/07/15 02:22:38;;;;;;;4.47;1.70;;;;;;;17.34;67.75;100709.28;1826198;77;20863;-89
2022/07/15 02:25:06;;;;;;;1.95;1.85;;;;;;;17.33;67.87;100713.75;1826160;78;21846;-89
2022/07/15 02:27:33;;;;;;;3.42;1.70;;;;;;;17.31;67.88;100709.56;1826403;77;20915;-89
2022/07/15 02:30:00;;;;;;;3.58;1.80;;;;;;;17.30;67.73;100708.73;1826574;77;20870;-88
2022/07/15 02:32:29;;;;;;;3.60;1.67;;;;;;;17.28;68.00;100701.39;1826307;77;20930;-90
2022/07/15 02:34:56;;;;;;;2.80;1.67;;;;;;;17.28;68.05;100708.52;1826832;78;20895;-89
2022/07/15 02:37:24;;;;;;;2.47;2.30;;;;;;;17.27;68.10;100706.33;1827562;77;21186;-89
2022/07/15 02:39:51;;;;;;;2.27;2.08;;;;;;;17.28;67.99;100711.16;1800580;78;20938;-89
2022/07/15 02:42:19;;;;;;;4.53;1.82;;;;;;;17.30;67.99;100719.83;1826475;78;20902;-90
2022/07/15 02:44:46;;;;;;;1.85;1.75;;;;;;;17.30;67.96;100718.01;1826338;77;20970;-90
2022/07/15 02:47:13;;;;;;;2.15;1.65;;;;;;;17.32;67.94;100712.09;1826532;78;20957;-89
2022/07/15 02:49:40;;;;;;;2.15;1.65;;;;;;;17.34;67.84;100708.82;1826534;77;21269;-89
2022/07/15 02:52:07;;;;;;;3.25;1.87;;;;;;;17.37;67.78;100716.49;1826166;77;20909;-91
2022/07/15 02:54:36;;;;;;;2.58;2.08;;;;;;;17.42;67.75;100719.23;1851172;77;20869;-90
2022/07/15 02:57:04;;;;;;;2.27;2.05;;;;;;;17.46;67.67;100720.65;1854515;77;20870;-89
2022/07/15 02:59:31;;;;;;;3.83;2.20;;;;;;;17.48;67.71;100714.23;1855728;77;20961;-90
2022/07/15 03:01:59;;;;;;;5.55;2.35;;;;;;;17.53;67.94;100711.17;1854088;77;21178;-89
2022/07/15 03:04:26;;;;;;;2.37;2.17;;;;;;;17.57;68.31;100709.94;1853682;77;20904;-90
2022/07/15 03:06:53;;;;;;;2.92;2.47;;;;;;;17.59;68.86;100710.16;1853742;77;20940;-89
2022/07/15 03:09:20;;;;;;;6.37;2.00;;;;;;;17.63;69.32;100713.38;1822727;77;20999;-90
2022/07/15 03:11:50;;;;;;;2.55;2.22;;;;;;;17.67;69.52;100713.93;1853812;77;21007;-89
2022/07/15 03:14:18;;;;;;;4.75;2.50;;;;;;;17.70;69.83;100711.03;1853841;77;21091;-90
2022/07/15 03:16:47;;;;;;;11.25;3.20;;;;;;;17.73;70.35;100714.23;1823018;77;20912;-91
2022/07/15 03:19:14;;;;;;;4.47;2.30;;;;;;;17.76;70.51;100715.30;1853350;77;20886;-91
2022/07/15 03:21:42;;;;;;;9.80;3.02;;;;;;;17.78;70.58;100714.64;1853610;77;21391;-91
2022/07/15 03:24:11;;;;;;;5.42;2.10;;;;;;;17.80;70.87;100717.17;1853560;77;20983;-91
2022/07/15 03:26:38;;;;;;;5.80;2.40;;;;;;;17.82;71.26;100716.58;1853729;77;21863;-90
2022/07/15 03:29:06;;;;;;;3.55;2.08;;;;;;;17.83;71.42;100712.97;1854571;77;20909;-89
2022/07/15 03:31:34;;;;;;;3.47;3.00;;;;;;;17.86;71.54;100714.51;1855043;77;21004;-89
2022/07/15 03:34:02;;;;;;;4.28;3.00;;;;;;;17.88;71.86;100713.88;1824542;77;20929;-90
2022/07/15 03:36:29;;;;;;;3.87;2.60;;;;;;;17.91;71.95;100719.73;1854292;77;20847;-90
2022/07/15 03:38:56;;;;;;;3.72;2.47;;;;;;;17.95;71.96;100715.84;1854246;77;21180;-90
2022/07/15 03:41:23;;;;;;;4.12;2.80;;;;;;;18.00;72.09;100719.41;1854905;77;20987;-90
2022/07/15 03:45:26;;;;;;;3.40;2.35;;;;;;;18.13;71.00;100714.67;1819386;75;22548;-90
2022/07/15 03:47:53;;;;;;;4.92;2.67;;;;;;;18.16;70.73;100714.87;1792377;80;21475;-90
2022/07/15 03:50:22;;;;;;;6.03;2.98;;;;;;;18.26;70.59;100714.89;1790237;80;21781;-89
2022/07/15 03:52:50;;;;;;;8.20;3.50;;;;;;;18.32;70.37;100716.50;1790547;80;21002;-91
2022/07/15 03:55:17;;;;;;;5.03;3.25;;;;;;;18.38;70.29;100717.74;1790329;80;20928;-91
2022/07/15 03:57:45;;;;;;;8.05;2.95;;;;;;;18.47;70.42;100716.06;1790112;80;20903;-90
2022/07/15 04:00:14;;;;;;;8.20;5.70;;;;;;;18.54;70.42;100721.16;1790362;80;21006;-90
2022/07/15 04:02:41;;;;;;;9.15;3.58;;;;;;;18.61;69.91;100721.79;1790173;80;21222;-90
2022/07/15 04:05:09;;;;;;;6.97;3.50;;;;;;;18.72;69.06;100719.47;1790070;80;20896;-89
2022/07/15 04:07:36;;;;;;;4.22;3.37;;;;;;;18.85;68.32;100719.17;1790295;79;20896;-89
2022/07/15 04:10:04;;;;;;;7.47;3.20;;;;;;;18.97;67.87;100721.20;1755442;81;21003;-89
2022/07/15 04:12:31;;;;;;;5.03;3.22;;;;;;;19.10;67.47;100726.17;1743002;82;20916;-89
2022/07/15 04:14:57;;;;;;;4.53;3.55;;;;;;;19.22;67.12;100726.36;1725491;82;21221;-91
2022/07/15 04:17:26;;;;;;;7.08;4.22;;;;;;;19.36;66.75;100731.69;1755422;81;20991;-89
2022/07/15 04:19:52;;;;;;;6.80;3.70;;;;;;;19.52;66.38;100729.25;1755599;81;21626;-90
2022/07/15 04:22:20;;;;;;;4.92;3.30;;;;;;;19.70;66.01;100728.00;1755687;81;20861;-90
2022/07/15 04:24:48;;;;;;;7.90;4.62;;;;;;;19.90;65.67;100731.38;1755716;81;20931;-90
2022/07/15 04:27:16;;;;;;;5.08;4.10;;;;;;;20.24;65.17;100730.20;1756440;81;21390;-88
2022/07/15 04:29:47;;;;;;;7.17;3.55;;;;;;;20.80;64.01;100733.52;1756594;81;20931;-88
2022/07/15 04:32:14;;;;;;;8.73;3.42;;;;;;;21.46;62.54;100737.94;1757059;81;20944;-89
2022/07/15 04:34:43;;;;;;;6.05;3.10;;;;;;;22.15;60.27;100738.13;1755752;81;21003;-91
2022/07/15 04:37:10;;;;;;;5.35;3.50;;;;;;;22.82;58.52;100731.00;1755481;81;21343;-90
2022/07/15 04:39:39;;;;;;;3.25;2.87;;;;;;;23.46;56.65;100738.55;1755360;81;21183;-89
2022/07/15 04:42:06;;;;;;;6.30;3.10;;;;;;;24.03;55.11;100732.06;1755429;81;21078;-89
2022/07/15 04:44:34;;;;;;;4.83;2.90;;;;;;;24.57;53.76;100735.23;1751314;81;20913;-89
2022/07/15 04:47:02;;;;;;;5.35;2.90;;;;;;;25.09;52.22;100730.35;1747508;82;21390;-90
2022/07/15 04:52:15;;;;;;;6.53;3.25;;;;;;;26.05;49.84;100739.76;1651001;85;21336;-89
2022/07/15 04:54:44;;;;;;;7.90;2.85;;;;;;;26.54;48.51;100738.15;1633168;87;21016;-89
2022/07/15 04:57:14;;;;;;;14.23;3.50;;;;;;;27.01;47.40;100742.90;1632910;87;20897;-89
2022/07/15 04:59:41;;;;;;;8.25;2.90;;;;;;;27.36;46.32;100737.52;1632794;87;20944;-90
2022/07/15 05:02:09;;;;;;;3.35;2.52;;;;;;;27.71;45.52;100734.77;1632722;87;20929;-90
2022/07/15 05:04:39;;;;;;;6.12;3.05;;;;;;;28.01;44.98;100735.28;1633366;87;21193;-89
2022/07/15 05:07:07;;;;;;;2.92;2.58;;;;;;;28.24;44.15;100736.28;1634587;87;20896;-88
2022/07/15 05:09:34;;;;;;;6.60;4.45;;;;;;;28.45;43.53;100738.47;1634543;87;20972;-90
2022/07/15 05:12:05;;;;;;;4.42;3.47;;;;;;;28.67;43.12;100737.24;1634815;83;21564;-89
2022/07/15 05:14:34;;;;;;;6.03;5.47;;;;;;;28.97;42.50;100747.62;1633707;87;20979;-90
2022/07/15 05:17:01;;;;;;;4.12;2.72;;;;;;;29.30;41.89;100744.87;1633032;87;21169;-90
2022/07/15 05:19:30;;;;;;;2.85;2.37;;;;;;;29.63;41.40;100748.47;1632663;84;20864;-90
2022/07/15 05:22:00;;;;;;;3.27;2.33;;;;;;;29.75;40.96;100748.97;1632963;87;20983;-90
2022/07/15 05:24:29;;;;;;;3.92;2.60;;;;;;;29.73;40.09;100741.59;1633248;87;21442;-90
2022/07/15 05:26:58;;;;;;;2.77;2.20;;;;;;;29.61;40.21;100745.15;1634405;87;20924;-89
2022/07/15 05:29:27;;;;;;;3.83;2.65;;;;;;;29.44;40.37;100750.22;1785159;80;21255;-90
2022/07/15 05:31:54;;;;;;;3.40;2.70;;;;;;;29.27;40.49;100750.67;1785104;80;20932;-90
2022/07/15 05:34:21;;;;;;;4.05;2.72;;;;;;;29.11;40.76;100750.62;1784959;80;20829;-91
2022/07/15 05:36:50;;;;;;;2.40;2.17;;;;;;;28.96;41.02;100751.87;1784834;80;20935;-90
2022/07/15 05:39:18;;;;;;;3.17;2.52;;;;;;;28.79;41.38;100749.61;1784968;80;20920;-92
2022/07/15 05:41:47;;;;;;;3.45;2.62;;;;;;;28.71;41.85;100756.56;1784958;80;21150;-91
2022/07/15 05:44:14;;;;;;;3.95;2.83;;;;;;;28.86;41.75;100754.48;1782481;80;21055;-92
2022/07/15 05:46:42;;;;;;;3.83;2.70;;;;;;;29.18;41.58;100749.25;1776160;80;20940;-91
2022/07/15 05:49:10;;;;;;;3.98;3.62;;;;;;;29.62;40.03;100752.23;1754734;80;20924;-91
2022/07/15 05:51:37;;;;;;;3.62;3.17;;;;;;;30.06;38.89;100748.70;1776467;80;21437;-91
2022/07/15 05:54:06;;;;;;;3.85;2.72;;;;;;;30.51;38.56;100748.61;1776060;80;21155;-93
2022/07/15 05:56:33;;;;;;;3.42;2.62;;;;;;;30.97;38.24;100754.16;1738953;82;21007;-91
2022/07/15 05:59:00;;;;;;;3.58;2.60;;;;;;;31.41;37.33;100750.02;1776537;80;20833;-93
2022/07/15 06:01:30;;;;;;;4.20;3.12;;;;;;;31.81;36.41;100747.65;1776082;80;20924;-93
2022/07/15 06:03:57;;;;;;;4.03;2.08;;;;;;;32.17;35.85;100749.16;1776149;80;20972;-92
2022/07/15 06:06:24;;;;;;;3.02;2.60;;;;;;;32.54;35.22;100748.50;1776238;80;21236;-92
2022/07/15 06:08:54;;;;;;;4.62;2.75;;;;;;;32.88;34.44;100741.94;1739243;82;20948;-91
2022/07/15 06:11:23;;;;;;;7.92;2.55;;;;;;;33.21;34.24;100748.67;1776529;80;20971;-92
2022/07/15 06:13:52;;;;;;;2.87;2.60;;;;;;;33.55;33.75;100747.45;1776411;80;21368;-91
2022/07/15 06:16:21;;;;;;;3.37;2.25;;;;;;;33.85;32.89;100743.19;1776633;80;20881;-93
2022/07/15 06:18:51;;;;;;;4.25;2.85;;;;;;;34.14;32.27;100742.64;1776582;80;21876;-93
2022/07/15 06:21:19;;;;;;;3.58;2.05;;;;;;;34.42;31.98;100745.84;1739818;82;20945;-92
2022/07/15 06:23:46;;;;;;;2.20;2.10;;;;;;;34.70;31.29;100742.75;1776982;80;20995;-91
2022/07/15 06:26:13;;;;;;;3.33;1.77;;;;;;;34.95;30.29;100746.92;1776811;79;21007;-93
2022/07/15 06:28:42;;;;;;;1.40;1.30;;;;;;;35.18;29.78;100751.38;1739438;82;20900;-92
2022/07/15 06:31:10;;;;;;;7.15;2.83;;;;;;;35.39;29.14;100746.98;1776483;80;21089;-92
2022/07/15 06:33:37;;;;;;;1.32;1.27;;;;;;;35.62;28.35;100746.75;1776153;80;20885;-90
2022/07/15 06:36:05;;;;;;;2.22;1.42;;;;;;;35.81;27.10;100743.12;1776480;80;20975;-91
2022/07/15 06:38:33;;;;;;;1.75;1.35;;;;;;;35.97;26.71;100745.45;1777139;80;20983;-91
2022/07/15 06:41:00;;;;;;;4.10;1.45;;;;;;;36.05;26.94;100739.53;1776905;80;20845;-90
2022/07/15 06:43:27;;;;;;;2.05;1.70;;;;;;;36.16;26.79;100739.12;1739396;82;21247;-89
2022/07/15 06:46:00;;;;;;;2.17;1.37;;;;;;;36.29;26.69;100739.23;1781896;80;21407;-88
2022/07/15 06:48:27;;;;;;;4.22;2.20;;;;;;;36.44;26.62;100742.09;1784693;80;20912;-93
2022/07/15 06:50:55;;;;;;;6.05;1.60;;;;;;;36.55;26.14;100742.14;1784795;80;20947;-91
2022/07/15 06:53:22;;;;;;;3.05;1.37;;;;;;;36.68;25.94;100737.06;1784889;79;21016;-94
2022/07/15 06:55:52;;;;;;;4.25;1.95;;;;;;;36.83;26.42;100735.53;1783202;80;21479;-90
2022/07/15 06:58:19;;;;;;;5.85;2.62;;;;;;;37.01;26.45;100741.09;1784449;80;20876;-89
2022/07/15 07:00:46;;;;;;;2.12;1.95;;;;;;;37.18;26.85;100740.95;1784527;80;20901;-91
2022/07/15 07:03:13;;;;;;;4.97;2.33;;;;;;;37.35;26.38;100736.06;1784895;80;21025;-92
2022/07/15 07:05:41;;;;;;;2.98;1.90;;;;;;;37.51;26.01;100736.96;1785083;80;20868;-90
2022/07/15 07:08:08;;;;;;;4.83;2.10;;;;;;;37.56;26.26;100738.37;1784775;80;21323;-91
2022/07/15 07:10:36;;;;;;;3.15;1.70;;;;;;;37.68;25.97;100732.08;1785000;80;21440;-91
2022/07/15 07:13:03;;;;;;;3.12;1.30;;;;;;;37.79;25.36;100738.41;1785468;80;20881;-91
2022/07/15 07:15:30;;;;;;;3.85;1.60;;;;;;;37.92;24.68;100737.06;1784845;80;20923;-89
2022/07/15 07:17:59;;;;;;;2.75;1.50;;;;;;;38.07;23.92;100737.66;1784719;80;20928;-90
2022/07/15 07:20:27;;;;;;;1.37;1.00;;;;;;;38.14;23.61;100736.28;1784765;80;21162;-90
2022/07/15 07:22:54;;;;;;;2.33;1.30;;;;;;;38.17;23.29;100737.64;1784572;80;20970;-91
2022/07/15 07:25:21;;;;;;;2.17;1.02;;;;;;;38.21;23.21;100729.16;1784543;80;20940;-91
2022/07/15 07:27:48;;;;;;;5.90;1.10;;;;;;;38.25;23.09;100733.00;1784632;80;21034;-90
2022/07/15 07:30:15;;;;;;;1.50;1.40;;;;;;;38.34;22.98;100724.50;1784898;80;20962;-90
2022/07/15 07:32:41;;;;;;;1.90;1.67;;;;;;;38.48;22.75;100726.15;1784575;80;21135;-90
2022/07/15 07:35:09;;;;;;;2.30;1.60;;;;;;;38.61;22.58;100728.06;1784544;80;21363;-90
2022/07/15 07:37:37;;;;;;;1.98;1.00;;;;;;;38.71;22.12;100722.02;1784493;80;20975;-91
2022/07/15 07:40:07;;;;;;;1.37;1.07;;;;;;;38.86;22.17;100713.45;1753698;80;20919;-91
2022/07/15 07:42:36;;;;;;;1.50;1.10;;;;;;;39.02;22.42;100718.36;1785133;80;20892;-91
2022/07/15 07:45:04;;;;;;;3.55;1.30;;;;;;;39.23;22.26;100720.48;1781573;80;21137;-92
2022/07/15 07:47:37;;;;;;;2.62;0.88;;;;;;;39.32;21.53;100717.41;1776643;80;20905;-90
2022/07/15 07:50:05;;;;;;;1.52;1.42;;;;;;;39.44;21.29;100726.70;1777436;80;20964;-90
2022/07/15 07:52:32;;;;;;;2.65;1.57;;;;;;;39.55;21.24;100714.56;1776822;80;20869;-90
2022/07/15 07:54:59;;;;;;;4.03;1.20;;;;;;;39.58;20.82;100713.45;1776496;80;20873;-91
2022/07/15 07:57:27;;;;;;;3.72;1.98;;;;;;;39.63;20.97;100721.39;1776283;80;21233;-92
2022/07/15 07:59:54;;;;;;;2.55;1.52;;;;;;;39.68;21.11;100722.16;1776270;80;20932;-91
2022/07/15 08:02:21;;;;;;;2.98;1.95;;;;;;;39.73;21.11;100708.95;1776611;80;20885;-90
2022/07/15 08:04:48;;;;;;;1.47;1.22;;;;;;;39.78;21.19;100713.87;1776522;80;20944;-92
2022/07/15 08:07:15;;;;;;;2.60;2.37;;;;;;;39.87;21.19;100710.55;1777064;80;20976;-91
2022/07/15 08:09:42;;;;;;;1.37;1.25;;;;;;;39.95;21.12;100709.36;1776712;80;21026;-91
2022/07/15 08:12:10;;;;;;;1.70;1.30;;;;;;;40.07;20.92;100708.20;1776612;80;20929;-91
2022/07/15 08:14:37;;;;;;;3.42;1.82;;;;;;;40.22;20.59;100705.28;1776843;80;20936;-89
2022/07/15 08:17:05;;;;;;;1.20;1.10;;;;;;;40.29;20.44;100694.83;1776644;80;20980;-89
2022/07/15 08:19:32;;;;;;;2.90;2.70;;;;;;;40.38;20.37;100697.20;1776733;80;20884;-89
2022/07/15 08:21:59;;;;;;;4.40;1.35;;;;;;;40.52;20.26;100699.27;1776381;80;21131;-89
2022/07/15 08:24:27;;;;;;;2.77;1.25;;;;;;;40.56;20.06;100692.08;1775977;80;20983;-88
2022/07/15 08:26:54;;;;;;;7.05;1.77;;;;;;;40.57;20.53;100691.77;1776373;80;21019;-90
2022/07/15 08:29:21;;;;;;;2.45;1.82;;;;;;;40.57;20.74;100692.33;1777184;80;20943;-89
2022/07/15 08:31:48;;;;;;;2.02;1.92;;;;;;;40.57;20.62;100693.70;1777249;80;20908;-90
2022/07/15 08:34:15;;;;;;;2.83;1.82;;;;;;;40.50;20.57;100680.87;1776792;80;21267;-90
2022/07/15 08:36:42;;;;;;;3.30;2.25;;;;;;;40.19;20.33;100679.77;1776269;80;20845;-89
2022/07/15 08:39:11;;;;;;;4.42;2.20;;;;;;;39.86;20.66;100679.50;1776189;80;21069;-91
2022/07/15 08:41:38;;;;;;;2.70;2.05;;;;;;;39.50;21.49;100682.48;1776310;80;20940;-90
2022/07/15 08:44:06;;;;;;;3.25;2.37;;;;;;;39.30;21.65;100684.77;1776707;79;20936;-91
2022/07/15 08:46:33;;;;;;;5.53;2.02;;;;;;;38.92;21.94;100687.66;1777533;80;21019;-89
2022/07/15 08:49:08;;;;;;;2.15;1.80;;;;;;;38.74;21.94;100687.17;1778633;80;20912;-91
2022/07/15 08:51:40;;;;;;;1.98;1.80;;;;;;;38.48;22.24;100675.45;1777485;80;20961;-91
2022/07/15 08:54:07;;;;;;;2.40;1.98;;;;;;;38.34;22.21;100675.73;1776643;80;20975;-91
2022/07/15 08:56:35;;;;;;;2.75;1.87;;;;;;;38.12;22.48;100677.39;1776652;79;20849;-90
2022/07/15 08:59:03;;;;;;;2.30;1.92;;;;;;;38.03;22.33;100674.94;1776590;80;21144;-92
2022/07/15 09:01:31;;;;;;;2.12;1.98;;;;;;;38.09;22.88;100676.59;1739301;82;20897;-91
2022/07/15 09:04:00;;;;;;;4.55;2.05;;;;;;;38.01;22.70;100669.70;1776336;80;20872;-92
2022/07/15 09:06:39;;;;;;;2.62;2.33;;;;;;;38.18;22.29;100668.61;1776361;79;20999;-92
2022/07/15 09:09:27;;;;;;;3.50;1.85;;;;;;;38.12;22.53;100668.63;1776584;80;20980;-92
2022/07/15 09:12:08;;;;;;;3.67;1.90;;;;;;;38.03;22.62;100667.54;1777402;80;21237;-88
2022/07/15 09:14:38;;;;;;;5.28;1.87;;;;;;;37.73;22.67;100668.31;1776953;80;21493;-90
2022/07/15 09:17:15;;;;;;;2.60;1.67;;;;;;;37.27;23.07;100651.80;1776887;80;20936;-90
2022/07/15 09:20:05;;;;;;;4.58;1.77;;;;;;;36.84;23.79;100661.47;1776419;80;20924;-89
2022/07/15 09:22:49;;;;;;;1.27;1.12;;;;;;;36.67;24.29;100652.63;1776473;80;21362;-91
2022/07/15 09:25:16;;;;;;;2.15;1.52;;;;;;;36.74;24.29;100652.39;1776538;80;21250;-91
2022/07/15 09:27:45;;;;;;;2.02;1.40;;;;;;;36.92;24.21;100650.00;1776305;80;20971;-90
2022/07/15 09:36:25;;;;;;;3.02;1.50;;;;;;;37.01;24.16;100633.91;1776566;80;20991;-90
2022/07/15 09:38:56;;;;;;;2.15;1.67;;;;;;;37.19;23.67;100638.09;1776520;80;21103;-91
2022/07/15 09:41:41;;;;;;;2.67;1.67;;;;;;;37.37;23.50;100642.23;1776245;80;21381;-90
2022/07/15 09:44:14;;;;;;;2.25;1.40;;;;;;;37.69;23.66;100637.13;1776518;80;20889;-90
2022/07/15 09:46:59;;;;;;;3.12;1.62;;;;;;;38.05;23.41;100639.33;1782725;80;20948;-91
2022/07/15 09:49:32;;;;;;;1.77;1.60;;;;;;;38.34;23.43;100641.48;1784692;80;20955;-92
2022/07/15 09:52:09;;;;;;;3.75;1.35;;;;;;;38.49;22.89;100637.37;1784559;80;21239;-92
2022/07/15 09:54:40;;;;;;;1.70;1.60;;;;;;;38.41;22.82;100631.60;1785522;80;20982;-92
2022/07/15 09:57:16;;;;;;;1.77;1.60;;;;;;;38.31;22.57;100628.31;1784730;80;20892;-90
2022/07/15 09:59:45;;;;;;;1.55;1.42;;;;;;;38.11;22.74;100633.28;1784507;80;20971;-92
2022/07/15 10:02:14;;;;;;;1.77;1.67;;;;;;;38.05;22.77;100630.30;1784599;80;20967;-92
2022/07/15 10:04:42;;;;;;;1.85;1.57;;;;;;;38.09;22.97;100623.18;1787280;78;21219;-91
2022/07/15 10:07:09;;;;;;;2.87;1.65;;;;;;;38.23;22.99;100622.87;1786612;78;21039;-91
2022/07/15 10:09:37;;;;;;;1.55;1.45;;;;;;;38.46;22.85;100623.36;1786938;78;20940;-90
2022/07/15 10:12:16;;;;;;;2.25;1.52;;;;;;;38.66;22.30;100619.76;1786663;79;21144;-91
2022/07/15 10:15:00;;;;;;;6.55;1.92;;;;;;;38.90;22.59;100624.86;1755798;78;20903;-92
2022/07/15 10:17:48;;;;;;;4.70;1.62;;;;;;;38.94;22.25;100619.11;1786577;79;20932;-93
2022/07/15 10:20:29;;;;;;;1.70;1.60;;;;;;;38.74;21.99;100616.44;1786007;78;21006;-92
2022/07/15 10:23:27;;;;;;;2.55;1.52;;;;;;;38.57;22.46;100623.63;1786102;79;20904;-92
2022/07/15 10:26:12;;;;;;;2.02;1.80;;;;;;;38.55;23.33;100620.34;1786147;78;21199;-90
2022/07/15 10:28:56;;;;;;;1.95;1.30;;;;;;;38.61;22.67;100611.56;1752347;80;21037;-92
2022/07/15 10:31:27;;;;;;;1.50;1.40;;;;;;;38.71;22.37;100615.62;1787262;79;21320;-93
2022/07/15 10:34:12;;;;;;;3.15;1.32;;;;;;;38.67;22.12;100614.00;1786909;79;20951;-89
2022/07/15 10:36:54;;;;;;;1.67;1.30;;;;;;;38.56;22.28;100613.22;1786762;80;20884;-90
2022/07/15 10:39:24;;;;;;;2.92;1.20;;;;;;;38.61;22.12;100606.08;1786745;80;20904;-89
2022/07/15 10:41:58;;;;;;;2.65;1.50;;;;;;;38.76;22.34;100609.58;1787331;80;20869;-90
2022/07/15 10:44:31;;;;;;;2.12;1.22;;;;;;;38.97;21.89;100597.16;1786900;78;21211;-90
2022/07/15 10:47:18;;;;;;;2.33;1.32;;;;;;;39.20;21.81;100603.89;1780401;79;20920;-91
2022/07/15 10:49:47;;;;;;;2.70;1.12;;;;;;;39.37;21.63;100600.19;1778232;80;20975;-88
2022/07/15 10:52:22;;;;;;;2.15;2.02;;;;;;;39.51;21.53;100602.31;1777077;80;20940;-90
2022/07/15 10:55:04;;;;;;;1.70;1.20;;;;;;;39.54;21.13;100603.95;1777904;80;20937;-91
2022/07/15 10:57:46;;;;;;;3.72;1.40;;;;;;;39.63;21.06;100597.84;1776248;80;21134;-89
2022/07/15 11:00:31;;;;;;;2.25;1.55;;;;;;;39.64;21.35;100593.98;1772952;80;20888;-88
2022/07/15 11:03:12;;;;;;;1.37;1.10;;;;;;;39.70;21.07;100586.78;1775972;80;20955;-89
2022/07/15 11:05:54;;;;;;;1.60;1.50;;;;;;;39.63;21.18;100580.81;1774553;80;20944;-90
2022/07/15 11:08:40;;;;;;;3.00;1.75;;;;;;;39.52;20.61;100582.01;1776613;80;20916;-90
2022/07/15 11:11:22;;;;;;;3.77;1.15;;;;;;;39.30;21.17;100576.93;1776340;80;21209;-89
2022/07/15 11:13:51;;;;;;;2.12;1.42;;;;;;;39.27;21.47;100572.84;1775986;80;20904;-90
2022/07/15 11:16:20;;;;;;;1.77;1.30;;;;;;;39.19;21.40;100574.80;1775897;80;21078;-89
2022/07/15 11:18:53;;;;;;;1.30;1.20;;;;;;;38.94;21.27;100567.56;1776127;80;20944;-91
2022/07/15 11:21:20;;;;;;;1.87;1.50;;;;;;;38.69;21.50;100568.50;1776437;80;21299;-89
2022/07/15 11:23:49;;;;;;;1.65;1.40;;;;;;;38.43;21.62;100569.12;1776775;80;21226;-90
2022/07/15 11:26:17;;;;;;;1.75;1.50;;;;;;;38.28;21.96;100574.09;1776336;80;20938;-92
2022/07/15 11:28:55;;;;;;;2.10;1.32;;;;;;;38.18;22.28;100573.58;1776099;80;21528;-91
2022/07/15 11:31:23;;;;;;;1.75;1.62;;;;;;;38.11;22.42;100575.77;1775664;80;20944;-91
2022/07/15 11:33:57;;;;;;;2.05;1.75;;;;;;;37.99;22.66;100571.93;1776238;80;20924;-89
2022/07/15 11:36:24;;;;;;;4.20;1.30;;;;;;;37.89;23.12;100571.41;1775885;80;21507;-90
2022/07/15 11:38:51;;;;;;;2.37;1.80;;;;;;;37.79;22.92;100575.52;1775925;80;20919;-90
2022/07/15 11:46:53;;;;;;;2.80;1.57;;;;;;;37.28;23.14;100569.45;1775821;80;20837;-90
2022/07/15 11:49:34;;;;;;;3.75;1.50;;;;;;;36.99;23.39;100572.37;1776066;80;21873;-90
2022/07/15 11:52:04;;;;;;;1.25;1.15;;;;;;;36.64;23.76;100565.70;1775994;80;20964;-90